Waggaman, Louisiana
Current Conditions -  °F | °C
As of 9:53 PM on Tuesday 25 Nov 2014 (Local Time) from KMSY Reporting Station
Few Clouds Few Clouds  
Wind Chill: 44°   Ceiling: Unl
Heat Index: 49°   Visibility: 10mi
Dew Point: 33°   Wind: 14mph
Humidity: 54%   Direction: 330°NNW
Pressure: 30.23"   Gusts: 20mph
Location:  29.9137°N, 90.2078°W
Report Text: KMSY 260353Z 33012G17KT 10SM FEW170 09/01 A3023 RMK AO2 SLP238 T00940006
Loading
Personal Weather Stations






























Interactive Weather Map New forecast layout! Learn more

10-Day Weather Forecast

Advertisements
Track Severe Weather on mobile